createdAt,value
2023-08-07T00:01:19.648Z,100905.63
2023-08-07T00:03:46.340Z,100893.06
2023-08-07T00:06:12.996Z,100902.06
2023-08-07T00:08:39.581Z,100903.41
2023-08-07T00:11:07.703Z,100900.13
2023-08-07T00:13:34.327Z,100900.38
2023-08-07T00:16:03.528Z,100900.88
2023-08-07T00:18:30.784Z,100896.66
2023-08-07T00:20:57.390Z,100897.00
2023-08-07T00:23:24.017Z,100895.09
2023-08-07T00:25:50.701Z,100897.50
2023-08-07T00:28:17.268Z,100895.09
2023-08-07T00:30:43.875Z,100897.22
2023-08-07T00:33:10.671Z,100892.97
2023-08-07T00:35:37.255Z,100897.50
2023-08-07T00:38:04.356Z,100905.22
2023-08-07T00:40:38.613Z,100899.00
2023-08-07T00:43:05.269Z,100905.94
2023-08-07T00:45:36.479Z,100905.97
2023-08-07T00:48:03.940Z,100907.81
2023-08-07T00:50:46.142Z,100902.41
2023-08-07T00:53:13.921Z,100902.13
2023-08-07T00:55:40.535Z,100896.34
2023-08-07T00:58:07.139Z,100906.19
2023-08-07T01:00:33.722Z,100910.97
2023-08-07T01:03:00.792Z,100909.13
2023-08-07T01:05:27.621Z,100906.56
2023-08-07T01:07:55.952Z,100900.22
2023-08-07T01:10:41.402Z,100908.34
2023-08-07T01:13:39.419Z,100900.78
2023-08-07T01:16:15.213Z,100898.25
2023-08-07T01:18:42.315Z,100906.41
2023-08-07T01:21:18.460Z,100906.19
2023-08-07T01:23:45.448Z,100909.09
2023-08-07T01:26:12.020Z,100902.91
2023-08-07T01:28:43.759Z,100903.88
2023-08-07T01:31:13.339Z,100902.91
2023-08-07T01:33:58.228Z,100888.22
2023-08-07T01:36:27.485Z,100894.63
2023-08-07T01:38:54.222Z,100904.94
2023-08-07T01:41:20.880Z,100892.38
2023-08-07T01:43:47.463Z,100892.47
2023-08-07T01:46:14.507Z,100895.25
2023-08-07T01:48:41.105Z,100888.09
2023-08-07T01:51:07.700Z,100888.84
2023-08-07T01:53:34.285Z,100888.84
2023-08-07T01:56:00.897Z,100889.69
2023-08-07T01:58:27.638Z,100892.75
2023-08-07T02:00:56.071Z,100898.16
2023-08-07T02:03:22.775Z,100888.94
2023-08-07T02:05:49.552Z,100901.78
2023-08-07T02:08:16.207Z,100898.25
2023-08-07T02:10:42.808Z,100903.44
2023-08-07T02:13:09.441Z,100893.81
2023-08-07T02:15:36.121Z,100897.31
2023-08-07T02:18:02.808Z,100901.41
2023-08-07T02:20:29.397Z,100907.09
2023-08-07T02:22:55.978Z,100913.75
2023-08-07T02:25:22.580Z,100912.88
2023-08-07T02:27:49.243Z,100909.06
2023-08-07T02:30:15.832Z,100913.53
2023-08-07T02:32:44.287Z,100914.47
2023-08-07T02:35:10.929Z,100912.75
2023-08-07T02:37:37.514Z,100910.72
2023-08-07T02:40:05.303Z,100916.25
2023-08-07T02:42:31.901Z,100918.16
2023-08-07T02:44:58.498Z,100917.59
2023-08-07T02:47:25.158Z,100921.22
2023-08-07T02:49:51.764Z,100917.00
2023-08-07T02:52:18.358Z,100924.19
2023-08-07T02:54:44.964Z,100919.34
2023-08-07T02:57:11.561Z,100922.06
2023-08-07T02:59:38.166Z,100929.59
2023-08-07T03:02:04.966Z,100921.22
2023-08-07T03:04:31.547Z,100910.97
2023-08-07T03:06:58.339Z,100911.06
2023-08-07T03:09:25.110Z,100915.81
2023-08-07T03:11:51.944Z,100912.28
2023-08-07T03:14:18.667Z,100917.59
2023-08-07T03:16:46.653Z,100915.38
2023-08-07T03:19:13.308Z,100915.50
2023-08-07T03:21:40.031Z,100919.03
2023-08-07T03:24:06.827Z,100917.59
2023-08-07T03:26:34.216Z,100914.75
2023-08-07T03:29:00.846Z,100907.44
2023-08-07T03:31:27.424Z,100904.75
2023-08-07T03:33:55.531Z,100912.53
2023-08-07T03:36:23.014Z,100915.72
2023-08-07T03:38:49.616Z,100906.72
2023-08-07T03:41:16.191Z,100903.91
2023-08-07T03:43:42.770Z,100922.78
2023-08-07T03:46:09.447Z,100919.03
2023-08-07T03:48:36.182Z,100921.22
2023-08-07T03:51:04.253Z,100926.75
2023-08-07T03:53:30.841Z,100930.41
2023-08-07T03:55:57.484Z,100927.63
2023-08-07T03:58:24.118Z,100933.34
2023-08-07T04:00:52.300Z,100933.94
2023-08-07T04:03:20.799Z,100936.66
2023-08-07T04:05:47.411Z,100933.81
2023-08-07T04:08:14.018Z,100928.69
2023-08-07T04:10:40.665Z,100928.88
2023-08-07T04:13:07.251Z,100924.00
2023-08-07T04:15:33.901Z,100932.16
2023-08-07T04:18:00.650Z,100935.75
2023-08-07T04:20:27.300Z,100937.91
2023-08-07T04:22:53.895Z,100934.19
2023-08-07T04:25:20.544Z,100940.97
2023-08-07T04:27:47.123Z,100937.69
2023-08-07T04:30:13.756Z,100940.34
2023-08-07T04:32:40.425Z,100940.28
2023-08-07T04:35:07.558Z,100943.31
2023-08-07T04:37:34.274Z,100943.94
2023-08-07T04:40:01.917Z,100954.28
2023-08-07T04:42:28.746Z,100950.84
2023-08-07T04:44:55.387Z,100957.53
2023-08-07T04:47:22.056Z,100954.59
2023-08-07T04:49:48.961Z,100958.94
2023-08-07T04:52:25.532Z,100961.00
2023-08-07T04:54:53.433Z,100960.34
2023-08-07T04:57:20.040Z,100968.06
2023-08-07T04:59:46.662Z,100974.47
2023-08-07T05:02:13.435Z,100969.81
2023-08-07T05:04:40.111Z,100962.00
2023-08-07T05:07:06.867Z,100971.06
2023-08-07T05:09:33.477Z,100965.66
2023-08-07T05:12:00.076Z,100970.59
2023-08-07T05:14:26.851Z,100971.97
2023-08-07T05:16:53.494Z,100974.34
2023-08-07T05:19:20.144Z,100978.09
2023-08-07T05:21:50.981Z,100984.22
2023-08-07T05:24:20.479Z,100989.56
2023-08-07T05:26:47.084Z,100982.50
2023-08-07T05:29:13.717Z,100994.31
2023-08-07T05:31:40.325Z,100995.31
2023-08-07T05:34:07.653Z,100996.31
2023-08-07T05:36:34.433Z,101005.34
2023-08-07T05:39:01.026Z,100996.31
2023-08-07T05:41:28.408Z,101014.50
2023-08-07T05:43:54.995Z,101005.25
2023-08-07T05:46:21.640Z,101012.19
2023-08-07T05:48:48.320Z,101005.84
2023-08-07T05:51:14.926Z,101003.25
2023-08-07T05:53:42.292Z,101014.03
2023-08-07T05:56:08.876Z,101012.75
2023-08-07T05:58:35.500Z,101008.88
2023-08-07T06:01:02.097Z,101017.81
2023-08-07T06:03:29.253Z,101023.84
2023-08-07T06:05:55.870Z,101019.38
2023-08-07T06:08:22.493Z,101027.19
2023-08-07T06:10:49.087Z,101029.25
2023-08-07T06:13:26.585Z,101037.16
2023-08-07T06:15:58.492Z,101041.63
2023-08-07T06:18:25.878Z,101058.25
2023-08-07T06:20:52.468Z,101058.75
2023-08-07T06:23:19.056Z,101057.81
2023-08-07T06:25:45.672Z,101059.38
2023-08-07T06:28:12.490Z,101057.41
2023-08-07T06:30:39.069Z,101048.91
2023-08-07T06:33:05.721Z,101064.66
2023-08-07T06:35:32.329Z,101062.09
2023-08-07T06:37:59.030Z,101062.03
2023-08-07T06:40:26.398Z,101080.00
2023-08-07T06:42:53.029Z,101077.16
2023-08-07T06:45:19.674Z,101077.31
2023-08-07T06:47:46.287Z,101086.34
2023-08-07T06:50:13.617Z,101074.63
2023-08-07T06:52:40.218Z,101083.50
2023-08-07T06:55:07.865Z,101087.03
2023-08-07T06:57:35.779Z,101086.47
2023-08-07T07:00:02.440Z,101085.75
2023-08-07T07:02:29.060Z,101087.13
2023-08-07T07:04:55.762Z,101081.13
2023-08-07T07:07:22.340Z,101081.94
2023-08-07T07:09:48.935Z,101091.94
2023-08-07T07:12:15.561Z,101099.63
2023-08-07T07:14:42.207Z,101088.19
2023-08-07T07:17:08.953Z,101081.13
2023-08-07T07:19:35.547Z,101089.41
2023-08-07T07:22:02.219Z,101089.41
2023-08-07T07:24:28.839Z,101096.50
2023-08-07T07:26:55.480Z,101089.72
2023-08-07T07:29:22.535Z,101091.56
2023-08-07T07:31:49.238Z,101094.91
2023-08-07T07:34:15.878Z,101093.91
2023-08-07T07:36:42.564Z,101096.09
2023-08-07T07:39:11.150Z,101115.03
2023-08-07T07:41:37.737Z,101125.75
2023-08-07T07:44:04.420Z,101134.75
2023-08-07T07:46:32.728Z,101136.47
2023-08-07T07:49:00.018Z,101136.53
2023-08-07T07:51:27.529Z,101138.19
2023-08-07T07:54:13.184Z,101131.13
2023-08-07T07:56:40.717Z,101135.81
2023-08-07T07:59:09.241Z,101129.50
2023-08-07T08:01:36.874Z,101130.41
2023-08-07T08:04:03.651Z,101131.97
2023-08-07T08:06:31.738Z,101134.69
2023-08-07T08:08:58.399Z,101133.25
2023-08-07T08:11:25.007Z,101132.44
2023-08-07T08:13:52.421Z,101139.97
2023-08-07T08:16:19.173Z,101131.88
2023-08-07T08:18:45.823Z,101132.78
2023-08-07T08:21:12.446Z,101136.94
2023-08-07T08:23:39.068Z,101154.13
2023-08-07T08:26:06.122Z,101144.50
2023-08-07T08:28:32.806Z,101143.50
2023-08-07T08:30:59.446Z,101168.66
2023-08-07T08:33:26.554Z,101161.56
2023-08-07T08:35:53.142Z,101167.88
2023-08-07T08:38:21.073Z,101166.88
2023-08-07T08:40:47.978Z,101177.38
2023-08-07T08:43:14.566Z,101175.66
2023-08-07T08:45:42.110Z,101172.00
2023-08-07T08:48:09.091Z,101186.03
2023-08-07T08:50:36.701Z,101185.19
2023-08-07T08:53:03.977Z,101197.72
2023-08-07T08:55:31.052Z,101191.31
2023-08-07T08:58:01.865Z,101195.06
2023-08-07T09:00:30.726Z,101191.44
2023-08-07T09:02:58.271Z,101191.44
2023-08-07T09:05:24.866Z,101194.66
2023-08-07T09:07:51.567Z,101189.47
2023-08-07T09:10:18.334Z,101213.06
2023-08-07T09:12:58.304Z,101207.72
2023-08-07T09:15:26.201Z,101200.47
2023-08-07T09:17:53.836Z,101208.56
2023-08-07T09:20:20.788Z,101211.19
2023-08-07T09:22:47.412Z,101209.41
2023-08-07T09:25:14.483Z,101214.69
2023-08-07T09:27:41.463Z,101206.47
2023-08-07T09:30:11.461Z,101212.56
2023-08-07T09:32:40.606Z,101206.19
2023-08-07T09:35:07.945Z,101225.41
2023-08-07T09:37:34.542Z,101222.47
2023-08-07T09:40:02.520Z,101217.97
2023-08-07T09:42:33.123Z,101224.44
2023-08-07T09:45:01.738Z,101233.53
2023-08-07T09:47:28.773Z,101232.69
2023-08-07T09:49:56.367Z,101224.69
2023-08-07T09:52:23.223Z,101231.03
2023-08-07T09:54:49.846Z,101223.66
2023-08-07T09:57:16.444Z,101217.97
2023-08-07T09:59:43.068Z,101223.94
2023-08-07T10:02:11.114Z,101226.31
2023-08-07T10:04:37.738Z,101229.00
2023-08-07T10:07:04.638Z,101238.03
2023-08-07T10:09:31.591Z,101251.56
2023-08-07T10:11:59.776Z,101246.34
2023-08-07T10:14:26.818Z,101250.16
2023-08-07T10:16:55.030Z,101241.44
2023-08-07T10:19:21.882Z,101240.28
2023-08-07T10:21:48.516Z,101239.25
2023-08-07T10:24:16.083Z,101248.47
2023-08-07T10:26:45.719Z,101244.84
2023-08-07T10:29:14.834Z,101251.63
2023-08-07T10:31:43.898Z,101247.13
2023-08-07T10:34:10.654Z,101250.53
2023-08-07T10:36:39.876Z,101263.91
2023-08-07T10:39:11.043Z,101249.13
2023-08-07T10:41:46.689Z,101259.66
2023-08-07T10:44:20.620Z,101256.03
2023-08-07T10:46:52.972Z,101258.22
2023-08-07T10:49:38.701Z,101256.38
2023-08-07T10:52:18.519Z,101252.97
2023-08-07T10:54:51.639Z,101248.94
2023-08-07T10:57:19.882Z,101257.16
2023-08-07T11:00:05.436Z,101258.16
2023-08-07T11:02:34.317Z,101261.44
2023-08-07T11:05:01.720Z,101268.19
2023-08-07T11:07:30.006Z,101266.31
2023-08-07T11:09:57.536Z,101263.69
2023-08-07T11:12:27.835Z,101270.19
2023-08-07T11:14:58.060Z,101274.91
2023-08-07T11:17:28.748Z,101268.75
2023-08-07T11:19:56.432Z,101273.22
2023-08-07T11:22:23.576Z,101276.66
2023-08-07T11:24:51.777Z,101274.06
2023-08-07T11:27:18.387Z,101292.00
2023-08-07T11:29:49.665Z,101283.03
2023-08-07T11:32:16.349Z,101282.97
2023-08-07T11:34:50.517Z,101278.13
2023-08-07T11:37:18.493Z,101268.78
2023-08-07T11:39:45.747Z,101292.31
2023-08-07T11:42:12.644Z,101281.50
2023-08-07T11:44:39.271Z,101276.09
2023-08-07T11:47:06.156Z,101283.31
2023-08-07T11:49:33.280Z,101292.38
2023-08-07T11:52:00.896Z,101287.09
2023-08-07T11:54:27.566Z,101292.56
2023-08-07T11:56:54.370Z,101290.72
2023-08-07T11:59:21.316Z,101284.22
2023-08-07T12:01:48.001Z,101290.53
2023-08-07T12:04:14.669Z,101281.28
2023-08-07T12:06:55.097Z,101285.63
2023-08-07T12:09:22.107Z,101293.75
2023-08-07T12:11:48.808Z,101293.03
2023-08-07T12:14:18.951Z,101278.78
2023-08-07T12:16:48.990Z,101292.19
2023-08-07T12:19:17.112Z,101285.56
2023-08-07T12:21:44.694Z,101297.19
2023-08-07T12:24:11.409Z,101279.88
2023-08-07T12:26:38.002Z,101292.28
2023-08-07T12:29:04.584Z,101293.22
2023-08-07T12:31:31.315Z,101288.81
2023-08-07T12:34:35.505Z,101282.41
2023-08-07T12:36:44.530Z,101289.47
2023-08-07T12:39:11.160Z,101275.00
2023-08-07T12:44:07.524Z,101281.34
2023-08-07T12:46:36.122Z,101296.34
2023-08-07T12:49:04.100Z,101291.63
2023-08-07T12:51:30.715Z,101298.09
2023-08-07T12:53:57.364Z,101287.16
2023-08-07T12:56:23.948Z,101300.81
2023-08-07T12:58:51.405Z,101295.97
2023-08-07T13:01:18.069Z,101308.34
2023-08-07T13:03:47.483Z,101305.16
2023-08-07T13:06:15.742Z,101315.97
2023-08-07T13:08:42.365Z,101317.69
2023-08-07T13:11:09.112Z,101311.50
2023-08-07T13:13:35.828Z,101314.00
2023-08-07T13:16:04.233Z,101303.28
2023-08-07T13:18:30.917Z,101305.28
2023-08-07T13:20:57.854Z,101310.25
2023-08-07T13:23:24.618Z,101314.00
2023-08-07T13:25:51.297Z,101314.00
2023-08-07T13:28:19.254Z,101314.81
2023-08-07T13:30:46.859Z,101322.84
2023-08-07T13:33:13.494Z,101321.72
2023-08-07T13:35:40.268Z,101319.00
2023-08-07T13:38:08.947Z,101326.25
2023-08-07T13:40:36.610Z,101328.91
2023-08-07T13:43:08.909Z,101319.09
2023-08-07T13:45:36.071Z,101328.03
2023-08-07T13:48:03.441Z,101334.38
2023-08-07T13:50:30.047Z,101335.31
2023-08-07T13:53:08.220Z,101347.00
2023-08-07T13:55:41.759Z,101347.06
2023-08-07T13:58:08.408Z,101349.69
2023-08-07T14:00:36.535Z,101361.31
2023-08-07T14:03:03.409Z,101356.69
2023-08-07T14:05:30.094Z,101372.97
2023-08-07T14:07:59.804Z,101355.63
2023-08-07T14:10:26.435Z,101353.09
2023-08-07T14:12:53.077Z,101355.69
2023-08-07T14:15:19.872Z,101358.25
2023-08-07T14:17:46.512Z,101358.31
2023-08-07T14:20:13.227Z,101360.09
2023-08-07T14:22:40.964Z,101370.94
2023-08-07T14:25:07.810Z,101352.81
2023-08-07T14:27:34.941Z,101369.84
2023-08-07T14:30:01.643Z,101367.28
2023-08-07T14:32:28.297Z,101373.56
2023-08-07T14:34:54.930Z,101379.88
2023-08-07T14:37:21.572Z,101383.41
2023-08-07T14:39:48.160Z,101402.25
2023-08-07T14:42:14.829Z,101378.22
2023-08-07T14:44:41.481Z,101388.00
2023-08-07T14:47:08.098Z,101383.06
2023-08-07T14:49:34.766Z,101394.22
2023-08-07T14:52:01.367Z,101379.88
2023-08-07T14:54:28.021Z,101394.91
2023-08-07T14:56:54.604Z,101401.31
2023-08-07T14:59:21.570Z,101401.13
2023-08-07T15:01:48.232Z,101392.56
2023-08-07T15:04:15.396Z,101399.53
2023-08-07T15:06:43.385Z,101398.75
2023-08-07T15:09:12.808Z,101399.75
2023-08-07T15:11:41.621Z,101391.59
2023-08-07T15:14:10.738Z,101391.06
2023-08-07T15:16:38.592Z,101399.31
2023-08-07T15:19:05.558Z,101405.59
2023-08-07T15:21:32.599Z,101405.59
2023-08-07T15:23:59.179Z,101416.50
2023-08-07T15:26:26.151Z,101406.38
2023-08-07T15:28:52.829Z,101417.13
2023-08-07T15:31:19.540Z,101409.22
2023-08-07T15:33:50.162Z,101416.66
2023-08-07T15:36:17.359Z,101419.19
2023-08-07T15:38:44.011Z,101416.44
2023-08-07T15:41:13.644Z,101413.69
2023-08-07T15:43:40.312Z,101415.78
2023-08-07T15:46:07.066Z,101410.03
2023-08-07T15:48:33.757Z,101406.50
2023-08-07T15:51:00.833Z,101419.25
2023-08-07T15:53:27.480Z,101411.91
2023-08-07T15:55:54.099Z,101411.00
2023-08-07T15:58:22.996Z,101415.56
2023-08-07T16:00:49.616Z,101419.25
2023-08-07T16:03:16.251Z,101416.72
2023-08-07T16:05:42.927Z,101422.19
2023-08-07T16:08:09.838Z,101414.22
2023-08-07T16:10:39.216Z,101417.72
2023-08-07T16:13:05.858Z,101412.38
2023-08-07T16:15:32.528Z,101415.88
2023-08-07T16:17:59.457Z,101418.72
2023-08-07T16:20:26.188Z,101417.56
2023-08-07T16:22:52.858Z,101414.09
2023-08-07T16:25:19.470Z,101420.41
2023-08-07T16:27:46.560Z,101414.22
2023-08-07T16:30:13.197Z,101417.88
2023-08-07T16:32:40.319Z,101408.03
2023-08-07T16:35:09.884Z,101421.56
2023-08-07T16:37:36.655Z,101414.31
2023-08-07T16:40:03.875Z,101409.91
2023-08-07T16:42:30.495Z,101407.22
2023-08-07T16:44:57.104Z,101400.16
2023-08-07T16:47:23.926Z,101409.03
2023-08-07T16:49:51.825Z,101406.38
2023-08-07T16:52:18.695Z,101411.09
2023-08-07T16:54:46.691Z,101418.56
2023-08-07T16:57:14.143Z,101417.38
2023-08-07T16:59:40.788Z,101412.06
2023-08-07T17:02:08.154Z,101414.06
2023-08-07T17:04:36.393Z,101403.91
2023-08-07T17:07:05.312Z,101404.91
2023-08-07T17:09:31.963Z,101402.25
2023-08-07T17:11:58.962Z,101383.19
2023-08-07T17:14:26.885Z,101392.03
2023-08-07T17:16:53.575Z,101388.03
2023-08-07T17:19:22.280Z,101397.25
2023-08-07T17:21:49.490Z,101389.91
2023-08-07T17:24:16.168Z,101395.38
2023-08-07T17:26:42.768Z,101394.50
2023-08-07T17:29:09.392Z,101395.38
2023-08-07T17:31:36.037Z,101393.72
2023-08-07T17:34:02.816Z,101392.78
2023-08-07T17:36:29.480Z,101389.97
2023-08-07T17:38:56.250Z,101382.78
2023-08-07T17:41:23.125Z,101382.91
2023-08-07T17:43:49.786Z,101379.91
2023-08-07T17:46:17.089Z,101378.34
2023-08-07T17:48:45.578Z,101377.50
2023-08-07T17:51:13.399Z,101373.94
2023-08-07T17:53:40.827Z,101372.06
2023-08-07T17:56:07.426Z,101366.72
2023-08-07T17:58:34.068Z,101370.31
2023-08-07T18:01:00.722Z,101373.94
2023-08-07T18:03:28.679Z,101369.44
2023-08-07T18:05:55.344Z,101370.31
2023-08-07T18:08:22.125Z,101366.88
2023-08-07T18:10:48.827Z,101364.25
2023-08-07T18:13:15.610Z,101362.47
2023-08-07T18:15:42.929Z,101361.56
2023-08-07T18:18:09.670Z,101349.88
2023-08-07T18:20:37.235Z,101354.38
2023-08-07T18:23:04.111Z,101348.97
2023-08-07T18:25:30.748Z,101348.88
2023-08-07T18:27:57.407Z,101347.19
2023-08-07T18:30:24.006Z,101356.38
2023-08-07T18:32:52.597Z,101347.31
2023-08-07T18:35:20.025Z,101345.66
2023-08-07T18:37:46.644Z,101346.59
2023-08-07T18:40:13.729Z,101346.63
2023-08-07T18:42:40.949Z,101347.53
2023-08-07T18:45:08.106Z,101340.56
2023-08-07T18:47:34.762Z,101347.63
2023-08-07T18:50:01.445Z,101339.63
2023-08-07T18:52:28.077Z,101338.50
2023-08-07T18:54:57.046Z,101333.06
2023-08-07T18:57:23.780Z,101343.78
2023-08-07T18:59:51.428Z,101334.88
2023-08-07T19:02:18.070Z,101332.16
2023-08-07T19:04:44.681Z,101333.06
2023-08-07T19:07:11.972Z,101336.59
2023-08-07T19:09:38.565Z,101329.44
2023-08-07T19:12:05.635Z,101325.91
2023-08-07T19:14:34.958Z,101325.69
2023-08-07T19:17:02.790Z,101330.38
2023-08-07T19:19:32.153Z,101334.00
2023-08-07T19:21:59.002Z,101334.84
2023-08-07T19:24:25.590Z,101335.78
2023-08-07T19:26:52.219Z,101331.31
2023-08-07T19:29:18.851Z,101328.53
2023-08-07T19:31:45.483Z,101333.16
2023-08-07T19:34:12.154Z,101332.28
2023-08-07T19:36:41.086Z,101328.84
2023-08-07T19:39:08.496Z,101320.56
2023-08-07T19:41:36.750Z,101314.44
2023-08-07T19:44:04.082Z,101324.53
2023-08-07T19:46:30.832Z,101319.13
2023-08-07T19:48:57.913Z,101318.22
2023-08-07T19:51:24.584Z,101308.19
2023-08-07T19:54:01.218Z,101305.81
2023-08-07T19:56:30.063Z,101308.41
2023-08-07T19:58:57.591Z,101306.94
2023-08-07T20:01:24.389Z,101299.97
2023-08-07T20:03:51.098Z,101292.66
2023-08-07T20:06:17.697Z,101296.53
2023-08-07T20:08:44.369Z,101292.88
2023-08-07T20:11:11.298Z,101300.25
2023-08-07T20:13:37.990Z,101291.44
2023-08-07T20:16:06.699Z,101294.00
2023-08-07T20:18:33.520Z,101298.69
2023-08-07T20:21:00.134Z,101290.78
2023-08-07T20:23:28.089Z,101284.44
2023-08-07T20:25:55.621Z,101284.44
2023-08-07T20:28:22.364Z,101291.63
2023-08-07T20:30:48.983Z,101281.09
2023-08-07T20:33:15.686Z,101279.34
2023-08-07T20:35:42.358Z,101275.69
2023-08-07T20:38:08.982Z,101270.50
2023-08-07T20:40:35.652Z,101266.75
2023-08-07T20:43:03.068Z,101266.88
2023-08-07T20:45:29.764Z,101256.16
2023-08-07T20:47:56.445Z,101259.03
2023-08-07T20:50:23.126Z,101249.09
2023-08-07T20:52:49.719Z,101256.34
2023-08-07T20:55:16.423Z,101264.38
2023-08-07T20:57:43.072Z,101259.03
2023-08-07T21:00:10.175Z,101252.84
2023-08-07T21:02:36.891Z,101249.34
2023-08-07T21:05:03.800Z,101249.28
2023-08-07T21:07:30.496Z,101244.91
2023-08-07T21:10:00.805Z,101240.47
2023-08-07T21:12:28.046Z,101241.63
2023-08-07T21:14:54.716Z,101237.94
2023-08-07T21:17:23.902Z,101244.16
2023-08-07T21:19:50.491Z,101238.44
2023-08-07T21:22:17.088Z,101243.00
2023-08-07T21:24:43.691Z,101242.19
2023-08-07T21:27:12.496Z,101238.75
2023-08-07T21:29:39.311Z,101241.25
2023-08-07T21:32:07.720Z,101237.75
2023-08-07T21:34:34.321Z,101236.97
2023-08-07T21:37:00.928Z,101232.59
2023-08-07T21:39:27.548Z,101234.31
2023-08-07T21:41:54.183Z,101233.38
2023-08-07T21:44:20.780Z,101233.44
2023-08-07T21:46:49.188Z,101231.75
2023-08-07T21:49:15.924Z,101239.13
2023-08-07T21:51:42.551Z,101227.47
2023-08-07T21:54:09.195Z,101223.13
2023-08-07T21:56:35.805Z,101228.31
2023-08-07T21:59:02.468Z,101223.00
2023-08-07T22:01:29.093Z,101223.00
2023-08-07T22:03:55.869Z,101217.72
2023-08-07T22:06:22.477Z,101215.69
2023-08-07T22:08:49.062Z,101220.31
2023-08-07T22:11:15.749Z,101213.50
2023-08-07T22:13:44.047Z,101212.31
2023-08-07T22:16:10.755Z,101204.28
2023-08-07T22:18:37.944Z,101209.69
2023-08-07T22:21:04.537Z,101204.41
2023-08-07T22:23:31.719Z,101208.09
2023-08-07T22:25:58.609Z,101207.19
2023-08-07T22:28:25.248Z,101208.97
2023-08-07T22:30:52.643Z,101197.00
2023-08-07T22:33:19.326Z,101189.16
2023-08-07T22:35:46.002Z,101194.63
2023-08-07T22:38:12.594Z,101191.00
2023-08-07T22:40:39.220Z,101193.69
2023-08-07T22:43:05.934Z,101194.75
2023-08-07T22:45:32.612Z,101185.91
2023-08-07T22:47:59.319Z,101186.78
2023-08-07T22:50:25.944Z,101186.72
2023-08-07T22:52:52.540Z,101192.91
2023-08-07T22:55:19.128Z,101191.13
2023-08-07T22:57:45.718Z,101195.66
2023-08-07T23:00:13.244Z,101188.50
2023-08-07T23:02:40.519Z,101187.38
2023-08-07T23:05:09.108Z,101181.44
2023-08-07T23:07:35.812Z,101181.44
2023-08-07T23:10:02.505Z,101181.44
2023-08-07T23:12:29.095Z,101177.91
2023-08-07T23:14:56.502Z,101180.00
2023-08-07T23:17:23.183Z,101179.22
2023-08-07T23:19:49.833Z,101172.88
2023-08-07T23:22:16.426Z,101175.59
2023-08-07T23:24:43.025Z,101162.03
2023-08-07T23:27:09.723Z,101168.41
2023-08-07T23:29:39.190Z,101165.53
2023-08-07T23:32:07.120Z,101163.88
2023-08-07T23:34:33.857Z,101161.53
2023-08-07T23:37:00.695Z,101158.88
2023-08-07T23:39:27.511Z,101153.88
2023-08-07T23:41:54.239Z,101146.91
2023-08-07T23:44:21.108Z,101145.97
2023-08-07T23:46:47.750Z,101144.25
2023-08-07T23:49:14.518Z,101145.84
2023-08-07T23:51:41.969Z,101137.88
2023-08-07T23:54:08.577Z,101144.41
2023-08-07T23:56:35.210Z,101147.03
2023-08-07T23:59:01.792Z,101147.56
